Orbital elements of COSMOS 970 DEB
| Launched | 20 December 1977 |
| Flight ended | – |
| Launch site | Tyuratam Missile and Space Center, Kazakhstan (Also known as Baikonur Cosmodrome) |
| Owner | Commonwealth of Independent States (former USSR) |
| NORAD ID | 10571 |
| Date fetched |
Epoch osculation |
Inc. [°] |
Ecc. | RA asc node [hr] |
Arg Peri. [°] |
Mean anom [°] |
Mean motion [rev/day] |
Abs. mag |
| Date fetched |
Epoch osculation |
Inc. [°] |
Ecc. | RA asc node [hr] |
Arg Peri. [°] |
Mean anom [°] |
Mean motion [rev/day] |
Abs. mag |
| 2026 May 03 17:57 | 2026 Apr 30 10:31:42 | 65.9355 | 0.01422 | 11.4969 | 2.7718 | 357.4107 | 13.87092 | – |
| 2026 May 02 17:57 | 2026 Apr 30 10:31:42 | 65.9355 | 0.01422 | 11.4969 | 2.7718 | 357.4107 | 13.87092 | – |
| 2026 May 01 17:56 | 2026 Apr 30 10:31:42 | 65.9355 | 0.01422 | 11.4969 | 2.7718 | 357.4107 | 13.87092 | – |
| 2026 Apr 30 17:56 | 2026 Apr 30 10:31:42 | 65.9355 | 0.01422 | 11.4969 | 2.7718 | 357.4107 | 13.87092 | – |
| 2026 Apr 29 17:57 | 2026 Apr 23 05:29:11 | 65.9363 | 0.01416 | 12.7045 | 6.6572 | 357.4107 | 13.87092 | – |
| 2026 Apr 28 17:56 | 2026 Apr 23 05:29:11 | 65.9363 | 0.01416 | 12.7045 | 6.6572 | 357.4107 | 13.87092 | – |
| 2026 Apr 27 17:58 | 2026 Apr 23 05:29:11 | 65.9363 | 0.01416 | 12.7045 | 6.6572 | 357.4107 | 13.87092 | – |
| 2026 Apr 26 17:58 | 2026 Apr 23 05:29:11 | 65.9363 | 0.01416 | 12.7045 | 6.6572 | 357.4107 | 13.87092 | – |
| 2026 Apr 25 17:58 | 2026 Apr 23 05:29:11 | 65.9363 | 0.01416 | 12.7045 | 6.6572 | 357.4107 | 13.87092 | – |
| 2026 Apr 24 17:59 | 2026 Apr 23 05:29:11 | 65.9363 | 0.01416 | 12.7045 | 6.6572 | 357.4107 | 13.87092 | – |
| 2026 Apr 23 17:57 | 2026 Apr 19 06:18:47 | 65.9365 | 0.01413 | 13.3686 | 8.8089 | 357.4107 | 13.87092 | – |
| 2026 Apr 22 17:57 | 2026 Apr 19 06:18:47 | 65.9365 | 0.01413 | 13.3686 | 8.8089 | 357.4107 | 13.87092 | – |
| 2026 Apr 21 17:57 | 2026 Apr 19 06:18:47 | 65.9365 | 0.01413 | 13.3686 | 8.8089 | 357.4107 | 13.87092 | – |
| 2026 Apr 20 17:57 | 2026 Apr 19 06:18:47 | 65.9365 | 0.01413 | 13.3686 | 8.8089 | 357.4107 | 13.87092 | – |
| 2026 Apr 19 17:58 | 2026 Apr 19 06:18:47 | 65.9365 | 0.01413 | 13.3686 | 8.8089 | 357.4107 | 13.87092 | – |
| 2026 Apr 18 17:56 | 2026 Apr 13 06:41:14 | 65.9364 | 0.01408 | 14.3708 | 12.0565 | 357.4107 | 13.87092 | – |
| 2026 Apr 16 17:57 | 2026 Apr 13 06:41:14 | 65.9364 | 0.01408 | 14.3708 | 12.0565 | 357.4107 | 13.87092 | – |
| 2026 Apr 14 17:57 | 2026 Apr 13 06:41:14 | 65.9364 | 0.01408 | 14.3708 | 12.0565 | 357.4107 | 13.87092 | – |
| 2026 Apr 13 17:57 | 2026 Apr 13 06:41:14 | 65.9364 | 0.01408 | 14.3708 | 12.0565 | 357.4107 | 13.87092 | – |
| 2026 Apr 12 17:57 | 2026 Apr 08 09:01:04 | 65.9362 | 0.01405 | 15.1919 | 14.7222 | 357.4107 | 13.87092 | – |
| 2026 Apr 11 17:57 | 2026 Apr 08 09:01:04 | 65.9362 | 0.01405 | 15.1919 | 14.7222 | 357.4107 | 13.87092 | – |
| 2026 Apr 10 17:58 | 2026 Apr 08 09:01:04 | 65.9362 | 0.01405 | 15.1919 | 14.7222 | 357.4107 | 13.87092 | – |
| 2026 Apr 09 18:01 | 2026 Apr 08 09:01:04 | 65.9362 | 0.01405 | 15.1919 | 14.7222 | 357.4107 | 13.87092 | – |
| 2026 Apr 08 17:57 | 2026 Apr 08 09:01:04 | 65.9362 | 0.01405 | 15.1919 | 14.7222 | 357.4107 | 13.87092 | – |
| 2026 Apr 07 17:57 | 2026 Apr 01 10:53:44 | 65.9352 | 0.01400 | 16.3512 | 18.4808 | 357.4107 | 13.87092 | – |
| 2026 Apr 06 17:57 | 2026 Apr 01 10:53:44 | 65.9352 | 0.01400 | 16.3512 | 18.4808 | 357.4107 | 13.87092 | – |